createdAt,value
2018-10-09T07:10:38.904Z,97478.37
2018-10-09T07:13:07.961Z,97485.18
2018-10-09T07:15:37.075Z,97491.18
2018-10-09T07:18:06.304Z,97489.59
2018-10-09T07:20:35.527Z,97494.77
2018-10-09T07:23:04.701Z,97490.57
2018-10-09T07:25:33.779Z,97494.41
2018-10-09T07:28:03.042Z,97502.52
2018-10-09T07:30:31.966Z,97502.98
2018-10-09T07:33:01.105Z,97505.56
2018-10-09T07:35:30.237Z,97516.61
2018-10-09T07:37:59.330Z,97526.32
2018-10-09T07:40:28.416Z,97514.44
2018-10-09T07:42:57.487Z,97513.61
2018-10-09T07:45:26.565Z,97510.28
2018-10-09T07:47:56.089Z,97512.02
2018-10-09T07:50:26.173Z,97510.38
2018-10-09T07:52:56.042Z,97509.16
2018-10-09T07:55:25.997Z,97500.34
2018-10-09T07:57:56.048Z,97507.15
2018-10-09T08:00:26.016Z,97511.52
2018-10-09T08:02:56.123Z,97508.13
2018-10-09T08:05:26.272Z,97518.30
2018-10-09T08:07:56.194Z,97512.31
2018-10-09T08:10:26.160Z,97514.91
2018-10-09T08:12:56.283Z,97512.33
2018-10-09T08:15:26.362Z,97517.93
2018-10-09T08:17:56.308Z,97509.54
2018-10-09T08:20:26.238Z,97508.75
2018-10-09T08:22:56.406Z,97509.23
2018-10-09T08:25:26.386Z,97517.80
2018-10-09T08:27:56.376Z,97521.63
2018-10-09T08:30:26.334Z,97522.95
2018-10-09T08:32:56.383Z,97518.78
2018-10-09T08:35:26.464Z,97520.95
2018-10-09T08:37:56.471Z,97519.78
2018-10-09T08:40:26.679Z,97517.27
2018-10-09T08:42:56.635Z,97522.91
2018-10-09T08:45:26.559Z,97521.28
2018-10-09T08:47:56.748Z,97515.84
2018-10-09T08:50:26.603Z,97518.41
2018-10-09T08:52:56.726Z,97518.45
2018-10-09T08:55:26.658Z,97514.73
2018-10-09T08:57:57.106Z,97516.89
2018-10-09T09:00:26.725Z,97511.84
2018-10-09T09:02:56.788Z,97515.70
2018-10-09T09:05:26.754Z,97516.17
2018-10-09T09:07:56.826Z,97507.27
2018-10-09T09:10:26.720Z,97513.69
2018-10-09T09:12:56.784Z,97482.17
2018-10-09T09:15:26.792Z,97511.25
2018-10-09T09:17:56.826Z,97508.30
2018-10-09T09:20:27.401Z,97511.32
2018-10-09T09:22:56.898Z,97515.21
2018-10-09T09:25:27.039Z,97512.32
2018-10-09T09:27:56.895Z,97508.97
2018-10-09T09:30:26.895Z,97514.14
2018-10-09T09:32:57.022Z,97509.09
2018-10-09T09:35:26.922Z,97508.72
2018-10-09T09:37:57.054Z,97513.42
2018-10-09T09:40:26.966Z,97510.91
2018-10-09T09:42:57.099Z,97501.57
2018-10-09T09:45:27.021Z,97505.89
2018-10-09T09:47:57.098Z,97515.31
2018-10-09T09:50:27.045Z,97505.10
2018-10-09T09:52:57.119Z,97513.66
2018-10-09T09:55:27.237Z,97507.71
2018-10-09T09:57:57.299Z,97516.23
2018-10-09T10:00:32.610Z,97514.57
2018-10-09T10:03:01.792Z,97516.27
2018-10-09T10:05:30.938Z,97520.53
2018-10-09T10:08:00.018Z,97514.58
2018-10-09T10:10:29.123Z,97516.72
2018-10-09T10:12:58.230Z,97524.41
2018-10-09T10:15:27.300Z,97522.29
2018-10-09T10:17:57.359Z,97520.17
2018-10-09T10:20:27.492Z,97508.66
2018-10-09T10:22:57.555Z,97511.64
2018-10-09T10:25:27.501Z,97507.80
2018-10-09T10:27:57.651Z,97504.40
2018-10-09T10:30:27.565Z,97511.27
2018-10-09T10:32:57.735Z,97516.35
2018-10-09T10:35:27.551Z,97511.25
2018-10-09T10:37:57.731Z,97502.28
2018-10-09T10:40:27.609Z,97502.70
2018-10-09T10:42:57.688Z,97505.25
2018-10-09T10:45:27.645Z,97500.09
2018-10-09T10:47:57.788Z,97498.78
2018-10-09T10:50:27.896Z,97491.48
2018-10-09T10:52:57.811Z,97488.08
2018-10-09T10:55:27.968Z,97490.62
2018-10-09T10:57:57.919Z,97489.75
2018-10-09T11:00:27.823Z,97491.41
2018-10-09T11:02:57.801Z,97487.59
2018-10-09T11:20:55.866Z,97472.48
2018-10-09T11:23:25.986Z,97468.16
2018-10-09T11:25:55.126Z,97469.01
2018-10-09T11:28:24.549Z,97459.55
2018-10-09T11:30:53.648Z,97455.20
2018-10-09T11:33:23.073Z,97452.53
2018-10-09T11:35:52.194Z,97453.30
2018-10-09T11:38:22.115Z,97453.34
2018-10-09T11:40:51.195Z,97447.29
2018-10-09T11:43:20.650Z,97448.89
2018-10-09T11:45:49.807Z,97442.08
2018-10-09T11:48:21.451Z,97439.52
2018-10-09T11:50:50.591Z,97435.31
2018-10-09T11:53:20.087Z,97439.59
2018-10-09T11:55:49.226Z,97441.28
2018-10-09T11:58:18.701Z,97438.63
2018-10-09T12:00:49.241Z,97439.39
2018-10-09T12:03:18.735Z,97435.05
2018-10-09T12:05:47.934Z,97432.40
2018-10-09T12:08:32.170Z,97430.31
2018-10-09T12:11:01.847Z,97427.31
2018-10-09T12:13:30.945Z,97429.92
2018-10-09T12:16:00.128Z,97433.41
2018-10-09T12:18:29.188Z,97428.70
2018-10-09T12:20:58.545Z,97428.34
2018-10-09T12:28:37.562Z,97424.17
2018-10-09T12:31:06.787Z,97426.65
2018-10-09T12:33:35.963Z,97427.53
2018-10-09T12:36:05.505Z,97429.26
2018-10-09T12:38:34.845Z,97424.97
2018-10-09T12:41:03.987Z,97422.81
2018-10-09T12:43:33.111Z,97419.22
2018-10-09T12:46:02.217Z,97417.84
2018-10-09T12:48:31.840Z,97418.52
2018-10-09T12:51:00.973Z,97408.21
2018-10-09T12:53:30.116Z,97408.06
2018-10-09T12:55:59.213Z,97405.36
2018-10-09T12:58:29.397Z,97407.88
2018-10-09T13:00:58.999Z,97405.47
2018-10-09T13:03:29.004Z,97399.25
2018-10-09T13:05:58.987Z,97395.44
2018-10-09T13:13:34.217Z,97392.65
2018-10-09T13:16:03.359Z,97391.75
2018-10-09T13:18:32.448Z,97389.14
2018-10-09T13:21:01.749Z,97390.41
2018-10-09T13:23:30.804Z,97381.81
2018-10-09T13:25:59.960Z,97389.86
2018-10-09T13:28:29.592Z,97391.52
2018-10-09T13:30:59.408Z,97389.70
2018-10-09T13:33:29.265Z,97383.62
2018-10-09T13:35:59.283Z,97379.64
2018-10-09T13:53:57.571Z,97376.94
2018-10-09T13:56:27.131Z,97378.14
2018-10-09T13:58:56.249Z,97371.72
2018-10-09T14:01:25.405Z,97370.41
2018-10-09T14:03:54.601Z,97370.36
2018-10-09T14:06:24.102Z,97368.53
2018-10-09T14:08:53.313Z,97363.79
2018-10-09T14:11:22.897Z,97358.98
2018-10-09T14:13:53.617Z,97367.44
2018-10-09T14:16:23.177Z,97370.75
2018-10-09T14:18:52.365Z,97364.75
2018-10-09T14:21:23.410Z,97361.69
2018-10-09T14:23:52.567Z,97357.70
2018-10-09T14:26:22.043Z,97354.92
2018-10-09T14:28:51.219Z,97357.36
2018-10-09T14:31:20.467Z,97357.49
2018-10-09T14:33:49.585Z,97352.83
2018-10-09T14:49:16.186Z,97357.64
2018-10-09T14:51:45.266Z,97355.68
2018-10-09T14:54:14.414Z,97358.83
2018-10-09T14:56:43.947Z,97358.02
2018-10-09T14:59:13.050Z,97356.83
2018-10-09T15:01:42.204Z,97359.30
2018-10-09T15:04:11.438Z,97358.91
2018-10-09T15:06:40.614Z,97352.11
2018-10-09T15:09:11.348Z,97346.32
2018-10-09T15:11:40.628Z,97342.70
2018-10-09T15:14:09.804Z,97341.73
2018-10-09T15:16:39.295Z,97340.27
2018-10-09T15:19:08.847Z,97337.89
2018-10-09T15:21:38.173Z,97346.29
2018-10-09T15:24:07.372Z,97340.59
2018-10-09T15:26:36.533Z,97341.25
2018-10-09T15:29:05.681Z,97339.73
2018-10-09T15:31:34.802Z,97337.38
2018-10-09T15:34:03.914Z,97334.96
2018-10-09T15:36:32.990Z,97341.16
2018-10-09T15:39:02.148Z,97349.00
2018-10-09T15:41:31.284Z,97343.15
2018-10-09T15:44:00.604Z,97342.41
2018-10-09T15:51:31.012Z,97337.59
2018-10-09T15:54:00.958Z,97335.13
2018-10-09T15:56:33.024Z,97340.37
2018-10-09T15:59:03.990Z,97335.78
2018-10-09T16:01:33.167Z,97334.59
2018-10-09T16:04:02.358Z,97332.98
2018-10-09T16:06:31.423Z,97331.83
2018-10-09T16:09:01.309Z,97334.03
2018-10-09T16:11:33.213Z,97330.22
2018-10-09T16:14:03.875Z,97330.27
2018-10-09T16:16:33.068Z,97325.61
2018-10-09T16:19:02.188Z,97327.77
2018-10-09T16:21:31.698Z,97331.28
2018-10-09T16:24:01.764Z,97330.92
2018-10-09T16:52:23.585Z,97346.62
2018-10-09T16:54:52.754Z,97350.92
2018-10-09T16:57:22.223Z,97351.79
2018-10-09T16:59:51.367Z,97350.94
2018-10-09T17:02:21.033Z,97348.42
2018-10-09T17:04:50.187Z,97349.72
2018-10-09T17:07:20.081Z,97350.59
2018-10-09T17:09:49.196Z,97346.75
2018-10-09T17:12:18.723Z,97352.75
2018-10-09T17:14:48.262Z,97358.70
2018-10-09T17:17:17.607Z,97355.33
2018-10-09T17:19:46.823Z,97350.23
2018-10-09T17:22:16.239Z,97360.45
2018-10-09T17:24:45.479Z,97350.23
2018-10-09T17:27:15.033Z,97348.94
2018-10-09T17:29:44.519Z,97361.73
2018-10-09T17:32:13.728Z,97357.88
2018-10-09T17:34:42.875Z,97357.04
2018-10-09T17:37:12.051Z,97348.09
2018-10-09T17:39:41.169Z,97349.35
2018-10-09T17:42:10.374Z,97351.05
2018-10-09T17:44:39.519Z,97355.30
2018-10-09T17:47:09.453Z,97362.97
2018-10-09T17:49:40.155Z,97361.66
2018-10-09T17:52:10.366Z,97361.19
2018-10-09T17:54:39.516Z,97363.74
2018-10-09T17:57:08.667Z,97365.41
2018-10-09T17:59:37.906Z,97369.64
2018-10-09T18:02:07.095Z,97372.20
2018-10-09T18:04:36.234Z,97378.99
2018-10-09T18:07:05.479Z,97378.54
2018-10-09T18:09:34.640Z,97373.41
2018-10-09T18:12:03.822Z,97370.44
2018-10-09T18:14:33.283Z,97372.53
2018-10-09T18:17:02.943Z,97371.22
2018-10-09T18:19:33.211Z,97374.59
2018-10-09T18:22:02.938Z,97372.03
2018-10-09T18:40:15.059Z,97377.33
2018-10-09T18:42:44.369Z,97376.91
2018-10-09T18:45:13.566Z,97378.59
2018-10-09T18:47:44.092Z,97373.45
2018-10-09T18:50:13.751Z,97373.03
2018-10-09T18:52:43.375Z,97375.98
2018-10-09T18:55:14.402Z,97380.22
2018-10-09T18:57:44.181Z,97383.17
2018-10-09T19:00:14.056Z,97380.16
2018-10-09T19:02:43.301Z,97387.74
2018-10-09T19:05:12.521Z,97396.17
2018-10-09T19:07:41.867Z,97394.42
2018-10-09T19:10:11.330Z,97393.54
2018-10-09T19:12:40.706Z,97392.63
2018-10-09T19:15:10.142Z,97399.83
2018-10-09T19:17:39.573Z,97399.34
2018-10-09T19:20:09.084Z,97400.94
2018-10-09T19:22:38.462Z,97401.74
2018-10-09T19:25:09.780Z,97405.12
2018-10-09T19:27:39.077Z,97403.40
2018-10-09T19:30:09.041Z,97392.34
2018-10-09T19:32:38.481Z,97397.00
2018-10-09T19:35:38.745Z,97394.00
2018-10-09T19:38:07.976Z,97390.58
2018-10-09T19:40:37.279Z,97399.02
2018-10-09T19:43:06.655Z,97397.33
2018-10-09T19:45:36.086Z,97403.27
2018-10-09T19:48:05.461Z,97396.45
2018-10-09T19:50:34.771Z,97401.52
2018-10-09T19:53:04.055Z,97400.64
2018-10-09T19:55:34.536Z,97401.45
2018-10-09T19:58:04.190Z,97406.10
2018-10-09T20:00:34.401Z,97406.05
2018-10-09T20:06:06.226Z,97406.38
2018-10-09T20:08:35.545Z,97402.48
2018-10-09T20:11:35.526Z,97408.35
2018-10-09T20:14:04.637Z,97411.29
2018-10-09T20:16:34.016Z,97408.72
2018-10-09T20:19:04.060Z,97413.78
2018-10-09T20:26:36.065Z,97422.56
2018-10-09T20:29:05.550Z,97426.34
2018-10-09T20:31:34.642Z,97432.21
2018-10-09T20:34:04.300Z,97433.00
2018-10-09T20:36:33.443Z,97438.41
2018-10-09T20:39:02.851Z,97441.33
2018-10-09T20:41:32.638Z,97437.04
2018-10-09T20:44:01.757Z,97439.55
2018-10-09T20:46:30.974Z,97437.79
2018-10-09T20:49:00.106Z,97437.28
2018-10-09T20:51:29.615Z,97433.45
2018-10-09T20:53:58.707Z,97430.03
2018-10-09T20:56:27.895Z,97434.22
2018-10-09T20:58:57.006Z,97437.63
2018-10-09T21:01:26.501Z,97433.36
2018-10-09T21:03:55.709Z,97431.66
2018-10-09T21:06:25.237Z,97436.70
2018-10-09T21:08:54.337Z,97440.03
2018-10-09T21:11:23.790Z,97447.17
2018-10-09T21:13:52.902Z,97444.12
2018-10-09T21:16:22.445Z,97445.73
2018-10-09T21:18:51.567Z,97438.93
2018-10-09T21:21:21.111Z,97436.32
2018-10-09T21:23:50.230Z,97435.89
2018-10-09T21:26:19.617Z,97433.74
2018-10-09T21:28:48.759Z,97427.38
2018-10-09T21:31:18.244Z,97428.62
2018-10-09T21:33:47.439Z,97422.70
2018-10-09T21:36:16.537Z,97419.30
2018-10-09T21:38:46.015Z,97422.67
2018-10-09T21:41:15.126Z,97420.94
2018-10-09T21:43:44.237Z,97417.09
2018-10-09T21:46:13.403Z,97413.25
2018-10-09T21:48:42.507Z,97414.45
2018-10-09T21:51:11.623Z,97412.30
2018-10-09T21:53:40.722Z,97403.76
2018-10-09T21:56:09.939Z,97405.41
2018-10-09T21:58:39.110Z,97409.64
2018-10-09T22:01:09.223Z,97404.11
2018-10-09T22:03:38.502Z,97404.49
2018-10-09T22:06:08.072Z,97406.11
2018-10-09T22:08:37.205Z,97403.53
2018-10-09T22:11:06.330Z,97404.30
2018-10-09T22:29:16.025Z,97388.80
2018-10-09T22:31:45.156Z,97392.18
2018-10-09T22:34:14.302Z,97385.41
2018-10-09T22:36:43.394Z,97382.80
2018-10-09T22:39:12.478Z,97385.34
2018-10-09T22:41:41.573Z,97386.18
2018-10-09T22:44:10.744Z,97386.18
2018-10-09T22:46:39.851Z,97389.52
2018-10-09T22:49:09.036Z,97387.83
2018-10-09T22:51:38.143Z,97393.71
2018-10-09T22:54:07.260Z,97392.40
2018-10-09T22:56:36.773Z,97389.44
2018-10-09T22:59:06.814Z,97390.25
2018-10-09T23:06:37.900Z,97390.16
2018-10-09T23:09:09.454Z,97390.94
2018-10-09T23:11:38.676Z,97384.13
2018-10-09T23:14:07.814Z,97381.12
2018-10-09T23:16:37.317Z,97378.96
2018-10-09T23:19:07.072Z,97385.63
2018-10-09T23:26:42.503Z,97376.94
2018-10-09T23:29:11.589Z,97376.05
2018-10-09T23:31:40.668Z,97376.42
2018-10-09T23:34:09.882Z,97374.09
2018-10-09T23:36:38.957Z,97368.91
2018-10-09T23:39:09.353Z,97367.23
2018-10-09T23:41:38.425Z,97369.73
2018-10-09T23:44:07.553Z,97365.50
2018-10-09T23:46:37.235Z,97356.89
2018-10-09T23:49:07.294Z,97372.17
2018-10-09T23:51:37.209Z,97369.55
2018-10-09T23:54:07.390Z,97365.27
2018-10-09T23:56:37.358Z,97366.83
2018-10-09T23:59:07.673Z,97359.16
